createdAt,value
2018-04-23T00:00:10.323Z,92.04
2018-04-23T00:02:37.707Z,91.10
2018-04-23T00:05:05.091Z,90.74
2018-04-23T00:07:32.478Z,91.61
2018-04-23T00:09:59.862Z,93.87
2018-04-23T00:12:27.254Z,94.24
2018-04-23T00:14:54.646Z,96.16
2018-04-23T00:17:22.028Z,97.75
2018-04-23T00:19:49.415Z,98.33
2018-04-23T00:22:16.794Z,98.48
2018-04-23T00:24:44.175Z,98.47
2018-04-23T00:27:11.562Z,97.46
2018-04-23T00:29:38.949Z,96.79
2018-04-23T00:32:06.334Z,97.54
2018-04-23T00:34:33.718Z,97.07
2018-04-23T00:37:01.107Z,96.30
2018-04-23T00:39:28.487Z,97.78
2018-04-23T00:41:55.878Z,99.57
2018-04-23T00:44:23.267Z,100.00
2018-04-23T00:46:50.650Z,100.00
2018-04-23T00:49:18.043Z,100.00
2018-04-23T00:51:45.427Z,100.00
2018-04-23T00:54:12.831Z,100.00
2018-04-23T00:56:40.225Z,100.00
2018-04-23T00:59:07.617Z,100.00
2018-04-23T01:01:34.999Z,100.00
2018-04-23T01:04:02.401Z,100.00
2018-04-23T01:06:29.783Z,100.00
2018-04-23T01:08:57.164Z,100.00
2018-04-23T01:11:24.551Z,100.00
2018-04-23T01:13:51.941Z,100.00
2018-04-23T01:16:19.423Z,100.00
2018-04-23T01:18:46.855Z,100.00
2018-04-23T01:21:14.207Z,100.00
2018-04-23T01:23:41.591Z,100.00
2018-04-23T01:26:09.067Z,100.00
2018-04-23T01:28:36.441Z,100.00
2018-04-23T01:31:03.827Z,100.00
2018-04-23T01:33:31.224Z,100.00
2018-04-23T01:35:58.607Z,100.00
2018-04-23T01:38:25.998Z,100.00
2018-04-23T01:40:53.382Z,100.00
2018-04-23T01:43:20.775Z,100.00
2018-04-23T01:45:48.167Z,100.00
2018-04-23T01:48:15.743Z,100.00
2018-04-23T01:50:43.131Z,100.00
2018-04-23T01:53:10.514Z,100.00
2018-04-23T01:55:37.907Z,100.00
2018-04-23T01:58:05.297Z,100.00
2018-04-23T02:00:32.686Z,100.00
2018-04-23T02:03:00.083Z,100.00
2018-04-23T02:05:27.543Z,100.00
2018-04-23T02:07:54.934Z,100.00
2018-04-23T02:10:22.323Z,100.00
2018-04-23T02:12:49.711Z,100.00
2018-04-23T02:15:17.364Z,100.00
2018-04-23T02:17:44.751Z,100.00
2018-04-23T02:20:12.144Z,100.00
2018-04-23T02:22:39.687Z,100.00
2018-04-23T02:25:07.090Z,100.00
2018-04-23T02:27:34.476Z,100.00
2018-04-23T02:30:01.903Z,100.00
2018-04-23T02:32:29.295Z,100.00
2018-04-23T02:34:56.678Z,100.00
2018-04-23T02:37:24.327Z,100.00
2018-04-23T02:39:51.707Z,100.00
2018-04-23T02:42:19.186Z,100.00
2018-04-23T02:44:46.583Z,100.00
2018-04-23T02:47:13.971Z,100.00
2018-04-23T02:49:41.363Z,100.00
2018-04-23T02:52:08.748Z,100.00
2018-04-23T02:54:36.234Z,100.00
2018-04-23T02:57:03.624Z,100.00
2018-04-23T02:59:31.426Z,100.00
2018-04-23T03:01:58.811Z,100.00
2018-04-23T03:04:26.200Z,100.00
2018-04-23T03:06:53.595Z,100.00
2018-04-23T03:09:20.983Z,100.00
2018-04-23T03:11:48.383Z,100.00
2018-04-23T03:14:15.782Z,100.00
2018-04-23T03:16:43.265Z,100.00
2018-04-23T03:19:10.646Z,100.00
2018-04-23T03:21:38.047Z,100.00
2018-04-23T03:24:05.433Z,100.00
2018-04-23T03:26:32.820Z,100.00
2018-04-23T03:29:00.219Z,100.00
2018-04-23T03:31:27.617Z,100.00
2018-04-23T03:33:55.015Z,100.00
2018-04-23T03:36:22.389Z,100.00
2018-04-23T03:38:49.787Z,100.00
2018-04-23T03:41:17.179Z,100.00
2018-04-23T03:43:44.582Z,100.00
2018-04-23T03:46:11.977Z,100.00
2018-04-23T03:48:39.362Z,100.00
2018-04-23T03:51:06.763Z,100.00
2018-04-23T03:53:34.143Z,100.00
2018-04-23T03:56:01.539Z,100.00
2018-04-23T03:58:28.918Z,100.00
2018-04-23T04:00:56.315Z,100.00
2018-04-23T04:03:23.707Z,100.00
2018-04-23T04:05:51.108Z,100.00
2018-04-23T04:08:18.563Z,100.00
2018-04-23T04:10:45.954Z,100.00
2018-04-23T04:13:25.227Z,100.00
2018-04-23T04:16:04.359Z,100.00
2018-04-23T04:18:43.511Z,100.00
2018-04-23T04:21:10.900Z,100.00
2018-04-23T04:23:38.299Z,100.00
2018-04-23T04:26:05.686Z,100.00
2018-04-23T04:28:33.088Z,100.00
2018-04-23T04:31:01.386Z,100.00
2018-04-23T04:33:28.775Z,99.20
2018-04-23T04:35:56.171Z,99.31
2018-04-23T04:38:23.565Z,97.82
2018-04-23T04:40:50.950Z,97.41
2018-04-23T04:43:18.331Z,98.04
2018-04-23T04:45:45.718Z,98.54
2018-04-23T04:48:13.108Z,98.78
2018-04-23T04:50:40.494Z,99.77
2018-04-23T04:53:07.922Z,100.00
2018-04-23T04:55:35.308Z,99.96
2018-04-23T04:58:02.719Z,100.00
2018-04-23T05:00:30.106Z,99.83
2018-04-23T05:02:57.492Z,99.16
2018-04-23T05:05:24.874Z,98.50
2018-04-23T05:07:52.267Z,98.41
2018-04-23T05:10:19.683Z,97.80
2018-04-23T05:12:47.078Z,96.99
2018-04-23T05:15:14.473Z,97.40
2018-04-23T05:17:41.873Z,97.44
2018-04-23T05:20:09.272Z,97.98
2018-04-23T05:22:36.701Z,98.49
2018-04-23T05:25:04.131Z,98.67
2018-04-23T05:27:31.519Z,98.68
2018-04-23T05:29:58.930Z,96.48
2018-04-23T05:32:26.319Z,94.37
2018-04-23T05:34:53.715Z,93.86
2018-04-23T05:37:21.107Z,93.92
2018-04-23T05:39:48.511Z,93.86
2018-04-23T05:42:15.907Z,92.79
2018-04-23T05:44:43.402Z,92.73
2018-04-23T05:47:10.800Z,92.20
2018-04-23T05:49:38.242Z,90.87
2018-04-23T05:52:05.640Z,90.77
2018-04-23T05:54:33.042Z,90.42
2018-04-23T05:57:00.522Z,89.23
2018-04-23T05:59:27.903Z,87.81
2018-04-23T06:01:55.308Z,88.86
2018-04-23T06:04:22.851Z,87.64
2018-04-23T06:06:50.235Z,87.98
2018-04-23T06:09:17.635Z,88.50
2018-04-23T06:11:45.024Z,89.04
2018-04-23T06:14:12.417Z,88.92
2018-04-23T06:16:39.804Z,88.62
2018-04-23T06:19:07.198Z,89.27
2018-04-23T06:21:34.591Z,88.25
2018-04-23T06:24:02.095Z,88.22
2018-04-23T06:26:29.484Z,88.57
2018-04-23T06:28:56.883Z,87.97
2018-04-23T06:31:24.469Z,87.55
2018-04-23T06:33:51.864Z,89.10
2018-04-23T06:36:19.258Z,88.11
2018-04-23T06:38:46.657Z,86.70
2018-04-23T06:41:14.059Z,88.12
2018-04-23T06:43:41.463Z,87.81
2018-04-23T06:46:08.871Z,86.97
2018-04-23T06:48:36.245Z,85.90
2018-04-23T06:51:03.646Z,85.41
2018-04-23T06:53:31.031Z,85.51
2018-04-23T06:55:58.422Z,85.31
2018-04-23T06:58:25.827Z,85.35
2018-04-23T07:00:53.207Z,85.03
2018-04-23T07:03:20.617Z,84.45
2018-04-23T07:05:48.034Z,83.35
2018-04-23T07:08:15.426Z,84.23
2018-04-23T07:10:42.813Z,82.41
2018-04-23T07:13:10.212Z,82.48
2018-04-23T07:15:37.631Z,81.41
2018-04-23T07:18:05.024Z,82.13
2018-04-23T07:20:32.411Z,81.01
2018-04-23T07:22:59.805Z,82.11
2018-04-23T07:25:27.195Z,81.14
2018-04-23T07:27:54.591Z,79.97
2018-04-23T07:30:21.979Z,78.20
2018-04-23T07:32:49.371Z,78.16
2018-04-23T07:35:16.767Z,77.32
2018-04-23T07:37:44.158Z,77.00
2018-04-23T07:40:11.579Z,77.70
2018-04-23T07:42:38.967Z,78.28
2018-04-23T07:45:06.359Z,77.75
2018-04-23T07:47:33.833Z,77.67
2018-04-23T07:50:01.219Z,76.93
2018-04-23T07:52:28.651Z,77.05
2018-04-23T07:54:56.051Z,76.94
2018-04-23T07:57:23.449Z,76.78
2018-04-23T07:59:50.846Z,75.54
2018-04-23T08:02:18.235Z,75.54
2018-04-23T08:04:45.623Z,77.19
2018-04-23T08:07:13.023Z,76.81
2018-04-23T08:09:40.417Z,75.69
2018-04-23T08:12:07.811Z,74.23
2018-04-23T08:14:35.198Z,73.10
2018-04-23T08:17:02.592Z,74.12
2018-04-23T08:19:29.974Z,75.55
2018-04-23T08:21:57.409Z,76.28
2018-04-23T08:24:24.783Z,74.25
2018-04-23T08:26:52.182Z,76.02
2018-04-23T08:29:19.562Z,74.40
2018-04-23T08:31:46.990Z,76.14
2018-04-23T08:34:14.350Z,76.42
2018-04-23T08:36:41.748Z,75.90
2018-04-23T08:39:09.143Z,75.25
2018-04-23T08:41:36.539Z,75.54
2018-04-23T08:44:03.924Z,75.89
2018-04-23T08:46:31.359Z,74.92
2018-04-23T08:48:58.779Z,71.74
2018-04-23T08:51:26.154Z,71.75
2018-04-23T08:53:53.559Z,70.74
2018-04-23T08:56:20.962Z,69.19
2018-04-23T08:58:48.359Z,71.03
2018-04-23T09:01:15.752Z,72.08
2018-04-23T09:03:43.139Z,70.67
2018-04-23T09:06:10.608Z,69.71
2018-04-23T09:08:37.995Z,69.17
2018-04-23T09:11:05.399Z,69.25
2018-04-23T09:13:32.798Z,65.62
2018-04-23T09:16:00.196Z,65.74
2018-04-23T09:18:27.615Z,65.78
2018-04-23T09:20:55.051Z,63.22
2018-04-23T09:23:22.423Z,63.09
2018-04-23T09:25:49.825Z,61.48
2018-04-23T09:28:17.216Z,62.79
2018-04-23T09:30:44.625Z,62.21
2018-04-23T09:33:12.017Z,63.45
2018-04-23T09:35:39.395Z,60.70
2018-04-23T09:38:06.791Z,60.90
2018-04-23T09:40:34.178Z,57.67
2018-04-23T09:43:01.571Z,58.32
2018-04-23T09:45:28.986Z,57.42
2018-04-23T09:47:56.383Z,57.58
2018-04-23T09:50:23.767Z,56.46
2018-04-23T09:52:51.196Z,57.31
2018-04-23T09:55:18.583Z,60.10
2018-04-23T09:57:46.175Z,60.36
2018-04-23T10:00:13.563Z,60.78
2018-04-23T10:02:41.891Z,60.20
2018-04-23T10:05:09.281Z,62.70
2018-04-23T10:07:36.672Z,64.21
2018-04-23T10:10:04.067Z,63.53
2018-04-23T10:12:31.463Z,63.13
2018-04-23T10:14:58.862Z,62.31
2018-04-23T10:17:26.245Z,59.99
2018-04-23T10:19:53.631Z,60.74
2018-04-23T10:22:21.023Z,59.77
2018-04-23T10:24:48.435Z,59.60
2018-04-23T10:27:15.826Z,59.30
2018-04-23T10:29:43.222Z,56.50
2018-04-23T10:32:10.616Z,53.31
2018-04-23T10:34:38.004Z,54.24
2018-04-23T10:37:05.498Z,54.87
2018-04-23T10:39:32.887Z,52.77
2018-04-23T10:42:00.299Z,53.05
2018-04-23T10:44:27.688Z,52.21
2018-04-23T10:46:55.088Z,48.87
2018-04-23T10:49:22.470Z,51.01
2018-04-23T10:51:49.928Z,52.37
2018-04-23T10:54:17.495Z,50.44
2018-04-23T10:56:44.883Z,53.24
2018-04-23T10:59:12.275Z,53.93
2018-04-23T11:01:39.735Z,55.07
2018-04-23T11:04:07.132Z,56.46
2018-04-23T11:06:34.519Z,56.53
2018-04-23T11:09:01.916Z,54.83
2018-04-23T11:11:29.307Z,52.26
2018-04-23T11:13:56.696Z,51.77
2018-04-23T11:16:24.083Z,52.50
2018-04-23T11:18:51.498Z,52.76
2018-04-23T11:21:18.888Z,51.90
2018-04-23T11:23:46.280Z,52.06
2018-04-23T11:26:13.676Z,50.59
2018-04-23T11:28:41.059Z,52.45
2018-04-23T11:31:08.456Z,52.23
2018-04-23T11:33:35.842Z,52.26
2018-04-23T11:36:03.254Z,52.94
2018-04-23T11:38:30.635Z,50.53
2018-04-23T11:40:58.031Z,53.01
2018-04-23T11:43:25.419Z,52.09
2018-04-23T11:45:52.827Z,49.85
2018-04-23T11:48:20.214Z,47.08
2018-04-23T11:50:47.612Z,47.51
2018-04-23T11:53:15.003Z,48.23
2018-04-23T11:55:42.392Z,46.33
2018-04-23T11:58:09.783Z,48.14
2018-04-23T12:00:37.176Z,46.27
2018-04-23T12:03:04.566Z,45.20
2018-04-23T12:05:31.959Z,45.76
2018-04-23T12:07:59.350Z,46.71
2018-04-23T12:10:26.738Z,45.00
2018-04-23T12:12:54.139Z,47.12
2018-04-23T12:15:21.526Z,46.38
2018-04-23T12:17:48.923Z,47.49
2018-04-23T12:20:16.323Z,47.24
2018-04-23T12:22:43.702Z,49.12
2018-04-23T12:25:11.098Z,45.69
2018-04-23T12:27:38.492Z,45.42
2018-04-23T12:30:05.882Z,44.24
2018-04-23T12:32:33.279Z,46.20
2018-04-23T12:35:00.670Z,42.91
2018-04-23T12:37:28.060Z,46.62
2018-04-23T12:39:55.467Z,44.33
2018-04-23T12:42:22.863Z,45.95
2018-04-23T12:44:50.267Z,43.27
2018-04-23T12:47:17.647Z,45.18
2018-04-23T12:49:45.043Z,45.19
2018-04-23T12:52:12.432Z,42.51
2018-04-23T12:54:39.828Z,42.37
2018-04-23T12:57:07.215Z,41.28
2018-04-23T12:59:34.611Z,44.67
2018-04-23T13:02:02.012Z,44.23
2018-04-23T13:04:29.411Z,41.13
2018-04-23T13:06:56.831Z,42.11
2018-04-23T13:09:24.579Z,43.36
2018-04-23T13:11:52.091Z,42.91
2018-04-23T13:14:19.494Z,42.81
2018-04-23T13:16:46.919Z,43.90
2018-04-23T13:19:14.306Z,47.11
2018-04-23T13:21:41.685Z,46.10
2018-04-23T13:24:09.070Z,44.13
2018-04-23T13:26:36.475Z,41.71
2018-04-23T13:29:03.861Z,44.65
2018-04-23T13:31:31.255Z,44.30
2018-04-23T13:33:58.647Z,45.48
2018-04-23T13:36:26.040Z,46.76
2018-04-23T13:38:53.462Z,45.39
2018-04-23T13:41:20.903Z,45.34
2018-04-23T13:43:48.302Z,47.12
2018-04-23T13:46:15.721Z,47.09
2018-04-23T13:48:43.111Z,45.79
2018-04-23T13:51:10.504Z,45.76
2018-04-23T13:53:37.890Z,47.43
2018-04-23T13:56:05.283Z,43.73
2018-04-23T13:58:32.675Z,44.03
2018-04-23T14:01:00.065Z,43.67
2018-04-23T14:03:27.455Z,44.51
2018-04-23T14:05:54.931Z,43.53
2018-04-23T14:08:22.311Z,44.63
2018-04-23T14:10:49.703Z,44.34
2018-04-23T14:13:17.109Z,43.96
2018-04-23T14:15:44.527Z,41.54
2018-04-23T14:18:11.930Z,44.24
2018-04-23T14:20:39.320Z,43.13
2018-04-23T14:23:06.710Z,46.36
2018-04-23T14:25:34.103Z,41.34
2018-04-23T14:28:01.520Z,44.22
2018-04-23T14:30:28.899Z,44.69
2018-04-23T14:32:56.307Z,43.24
2018-04-23T14:35:23.722Z,43.95
2018-04-23T14:37:51.131Z,43.28
2018-04-23T14:40:18.514Z,45.36
2018-04-23T14:42:45.912Z,44.97
2018-04-23T14:45:13.308Z,45.57
2018-04-23T14:47:41.007Z,43.42
2018-04-23T14:50:08.400Z,43.60
2018-04-23T14:52:35.798Z,44.01
2018-04-23T14:55:03.210Z,45.15
2018-04-23T14:57:30.594Z,43.60
2018-04-23T14:59:58.002Z,43.24
2018-04-23T15:02:25.455Z,44.29
2018-04-23T15:04:52.843Z,44.22
2018-04-23T15:07:20.255Z,42.22
2018-04-23T15:09:47.667Z,43.10
2018-04-23T15:12:15.063Z,44.96
2018-04-23T15:14:42.450Z,44.11
2018-04-23T15:17:09.883Z,44.52
2018-04-23T15:19:37.276Z,44.70
2018-04-23T15:22:04.677Z,44.78
2018-04-23T15:24:32.063Z,45.76
2018-04-23T15:26:59.452Z,44.68
2018-04-23T15:29:26.865Z,44.79
2018-04-23T15:31:54.251Z,44.13
2018-04-23T15:34:21.663Z,43.14
2018-04-23T15:36:49.091Z,45.80
2018-04-23T15:39:16.487Z,43.90
2018-04-23T15:41:43.899Z,44.78
2018-04-23T15:44:11.302Z,44.12
2018-04-23T15:46:38.711Z,45.44
2018-04-23T15:49:06.143Z,44.80
2018-04-23T15:51:33.595Z,44.53
2018-04-23T15:54:01.079Z,45.71
2018-04-23T15:56:28.462Z,45.45
2018-04-23T15:58:55.856Z,44.69
2018-04-23T16:01:23.239Z,46.29
2018-04-23T16:03:50.643Z,44.05
2018-04-23T16:06:18.031Z,44.69
2018-04-23T16:08:45.434Z,43.81
2018-04-23T16:11:12.823Z,46.98
2018-04-23T16:13:40.213Z,43.81
2018-04-23T16:16:07.603Z,46.05
2018-04-23T16:18:34.991Z,46.44
2018-04-23T16:21:02.392Z,46.35
2018-04-23T16:23:29.779Z,46.48
2018-04-23T16:25:57.179Z,45.70
2018-04-23T16:28:24.610Z,47.08
2018-04-23T16:30:52.187Z,46.02
2018-04-23T16:33:19.596Z,45.89
2018-04-23T16:35:47.007Z,45.83
2018-04-23T16:38:14.382Z,45.86
2018-04-23T16:40:41.783Z,46.59
2018-04-23T16:43:09.179Z,47.74
2018-04-23T16:45:36.582Z,45.60
2018-04-23T16:48:03.989Z,46.71
2018-04-23T16:50:31.388Z,46.85
2018-04-23T16:52:58.803Z,46.21
2018-04-23T16:55:26.222Z,46.47
2018-04-23T16:57:53.637Z,46.36
2018-04-23T17:00:21.054Z,46.60
2018-04-23T17:02:48.483Z,47.17
2018-04-23T17:05:15.859Z,47.11
2018-04-23T17:07:43.498Z,47.80
2018-04-23T17:10:10.878Z,47.91
2018-04-23T17:12:38.366Z,48.58
2018-04-23T17:15:05.755Z,47.88
2018-04-23T17:17:33.157Z,48.34
2018-04-23T17:20:00.547Z,48.67
2018-04-23T17:22:27.960Z,48.69
2018-04-23T17:24:55.343Z,49.05
2018-04-23T17:27:22.746Z,47.79
2018-04-23T17:29:50.157Z,47.98
2018-04-23T17:32:17.544Z,49.32
2018-04-23T17:34:44.938Z,48.37
2018-04-23T17:37:12.343Z,48.61
2018-04-23T17:39:39.765Z,48.44
2018-04-23T17:42:07.151Z,48.18
2018-04-23T17:44:34.547Z,49.31
2018-04-23T17:47:01.947Z,49.57
2018-04-23T17:49:29.345Z,49.26
2018-04-23T17:51:56.743Z,49.47
2018-04-23T17:54:24.136Z,50.95
2018-04-23T17:56:51.534Z,50.42
2018-04-23T17:59:18.923Z,51.62
2018-04-23T18:01:46.335Z,51.41
2018-04-23T18:04:13.759Z,51.03
2018-04-23T18:06:41.166Z,52.68
2018-04-23T18:09:08.571Z,52.60
2018-04-23T18:11:35.965Z,53.26
2018-04-23T18:14:03.365Z,55.25
2018-04-23T18:16:30.799Z,55.39
2018-04-23T18:18:58.192Z,55.48
2018-04-23T18:21:25.592Z,55.17
2018-04-23T18:23:52.986Z,57.39
2018-04-23T18:26:20.384Z,56.78
2018-04-23T18:28:47.781Z,57.96
2018-04-23T18:31:15.208Z,56.99
2018-04-23T18:33:42.638Z,57.22
2018-04-23T18:36:10.019Z,58.68
2018-04-23T18:38:37.423Z,58.00
2018-04-23T18:41:04.816Z,57.82
2018-04-23T18:43:32.206Z,58.57
2018-04-23T18:45:59.702Z,59.58
2018-04-23T18:48:27.128Z,60.86
2018-04-23T18:50:54.511Z,60.29
2018-04-23T18:53:21.922Z,61.22
2018-04-23T18:55:49.327Z,60.80
2018-04-23T18:58:16.795Z,62.14
2018-04-23T19:00:44.199Z,62.33
2018-04-23T19:03:11.587Z,61.66
2018-04-23T19:05:39.029Z,61.69
2018-04-23T19:08:06.589Z,62.03
2018-04-23T19:10:33.994Z,62.69
2018-04-23T19:13:01.412Z,62.68
2018-04-23T19:15:28.872Z,63.93
2018-04-23T19:17:56.255Z,64.29
2018-04-23T19:20:23.679Z,63.95
2018-04-23T19:22:51.106Z,64.14
2018-04-23T19:25:18.536Z,64.62
2018-04-23T19:27:45.926Z,64.81
2018-04-23T19:30:13.335Z,65.84
2018-04-23T19:32:40.747Z,66.08
2018-04-23T19:35:08.136Z,66.09
2018-04-23T19:37:35.575Z,65.61
2018-04-23T19:40:02.981Z,66.08
2018-04-23T19:42:30.423Z,66.50
2018-04-23T19:44:57.825Z,66.91
2018-04-23T19:47:25.223Z,67.63
2018-04-23T19:49:52.739Z,68.80
2018-04-23T19:52:20.359Z,67.17
2018-04-23T19:54:47.735Z,68.57
2018-04-23T19:57:15.121Z,68.18
2018-04-23T19:59:42.514Z,67.82
2018-04-23T20:02:09.904Z,66.92
2018-04-23T20:04:37.302Z,66.59
2018-04-23T20:07:04.714Z,66.30
2018-04-23T20:09:32.194Z,64.61
2018-04-23T20:11:59.634Z,65.45
2018-04-23T20:14:27.060Z,65.67
2018-04-23T20:16:54.423Z,64.37
2018-04-23T20:19:21.839Z,63.93
2018-04-23T20:21:49.243Z,64.42
2018-04-23T20:24:16.697Z,64.06
2018-04-23T20:26:44.030Z,65.59
2018-04-23T20:29:11.568Z,66.26
2018-04-23T20:31:38.977Z,67.42
2018-04-23T20:34:06.363Z,68.50
2018-04-23T20:36:33.810Z,69.88
2018-04-23T20:39:01.191Z,70.64
2018-04-23T20:41:28.599Z,71.79
2018-04-23T20:43:55.991Z,72.78
2018-04-23T20:46:23.388Z,73.29
2018-04-23T20:48:50.882Z,73.94
2018-04-23T20:51:18.691Z,74.10
2018-04-23T20:53:46.180Z,74.41
2018-04-23T20:56:13.550Z,74.99
2018-04-23T20:58:40.960Z,76.08
2018-04-23T21:01:08.348Z,76.43
2018-04-23T21:03:35.762Z,76.99
2018-04-23T21:06:03.170Z,77.17
2018-04-23T21:08:30.584Z,77.12
2018-04-23T21:10:57.967Z,77.25
2018-04-23T21:13:25.363Z,77.46
2018-04-23T21:15:52.752Z,77.63
2018-04-23T21:18:20.303Z,78.04
2018-04-23T21:20:47.723Z,78.16
2018-04-23T21:23:15.113Z,78.74
2018-04-23T21:25:42.511Z,79.22
2018-04-23T21:28:09.909Z,79.49
2018-04-23T21:30:37.313Z,79.98
2018-04-23T21:33:04.702Z,79.95
2018-04-23T21:35:32.098Z,80.32
2018-04-23T21:37:59.573Z,80.57
2018-04-23T21:40:26.978Z,80.91
2018-04-23T21:42:54.395Z,79.77
2018-04-23T21:45:21.795Z,79.37
2018-04-23T21:47:49.204Z,79.14
2018-04-23T21:50:16.583Z,76.89
2018-04-23T21:52:43.983Z,76.47
2018-04-23T21:55:11.384Z,75.53
2018-04-23T21:57:38.785Z,74.79
2018-04-23T22:00:06.171Z,74.67
2018-04-23T22:02:33.651Z,74.62
2018-04-23T22:05:00.963Z,74.51
2018-04-23T22:07:28.351Z,73.28
2018-04-23T22:09:55.748Z,72.69
2018-04-23T22:12:23.141Z,70.54
2018-04-23T22:14:50.595Z,70.12
2018-04-23T22:17:17.978Z,69.06
2018-04-23T22:19:45.375Z,68.97
2018-04-23T22:22:12.771Z,67.81
2018-04-23T22:24:40.167Z,67.77
2018-04-23T22:27:07.554Z,68.07
2018-04-23T22:29:34.954Z,67.36
2018-04-23T22:32:02.417Z,67.60
2018-04-23T22:34:29.735Z,66.95
2018-04-23T22:36:57.123Z,67.27
2018-04-23T22:39:24.519Z,67.77
2018-04-23T22:41:51.918Z,67.52
2018-04-23T22:44:19.307Z,68.12
2018-04-23T22:46:46.707Z,67.76
2018-04-23T22:49:14.103Z,67.55
2018-04-23T22:51:41.502Z,68.04
2018-04-23T22:54:08.909Z,68.33
2018-04-23T22:56:36.304Z,68.44
2018-04-23T22:59:03.815Z,68.69
2018-04-23T23:01:31.224Z,68.32
2018-04-23T23:03:58.650Z,68.91
2018-04-23T23:06:26.178Z,68.61
2018-04-23T23:08:53.567Z,69.39
2018-04-23T23:11:20.956Z,69.09
2018-04-23T23:13:48.363Z,69.44
2018-04-23T23:16:15.746Z,69.74
2018-04-23T23:18:43.266Z,70.03
2018-04-23T23:21:10.653Z,69.92
2018-04-23T23:23:38.380Z,70.35
2018-04-23T23:26:05.771Z,69.61
2018-04-23T23:28:33.194Z,70.03
2018-04-23T23:31:00.583Z,70.35
2018-04-23T23:33:27.986Z,69.85
2018-04-23T23:35:55.375Z,69.70
2018-04-23T23:38:22.766Z,70.67
2018-04-23T23:40:50.379Z,70.24
2018-04-23T23:43:17.767Z,70.90
2018-04-23T23:45:45.159Z,70.41
2018-04-23T23:48:12.602Z,70.80
2018-04-23T23:50:39.998Z,70.56
2018-04-23T23:53:07.378Z,70.30
2018-04-23T23:55:34.770Z,70.26
2018-04-23T23:58:02.159Z,70.73
